Time;durP1;ratioP1;P1;durP2;ratioP2;P2;SDS_P1;SDS_P2;PMS_P1;PMS_P2;Temp;Humidity;BMP_temperature;BMP_pressure;BME280_temperature;BME280_humidity;BME280_pressure;Samples;Min_cycle;Max_cycle;Signal;HPM_P1;HPM_P2
2023/09/29 00:01:14;;;;;;;1.38;1.02;;;14.90;1.00;;;;;;5085660;28;20066;-89
2023/09/29 00:03:40;;;;;;;1.33;1.17;;;14.90;1.00;;;;;;5085231;28;20055;-89
2023/09/29 00:06:08;;;;;;;2.17;1.35;;;14.60;1.00;;;;;;5089830;28;20040;-89
2023/09/29 00:08:34;;;;;;;1.70;1.20;;;14.70;24.60;;;;;;5105931;28;20079;-89
2023/09/29 00:11:00;;;;;;;4.20;1.13;;;14.80;4.80;;;;;;5093720;28;20047;-89
2023/09/29 00:13:26;;;;;;;0.30;0.30;;;14.80;1.00;;;;;;5084980;28;20040;-89
2023/09/29 00:15:52;;;;;;;1.95;0.55;;;14.90;1.00;;;;;;5086550;28;20417;-89
2023/09/29 00:18:17;;;;;;;3.85;2.28;;;14.80;1.00;;;;;;5105454;28;20492;-89
2023/09/29 00:20:43;;;;;;;0.95;0.20;;;14.80;1.00;;;;;;5088981;28;20351;-89
2023/09/29 00:23:09;;;;;;;0.25;0.25;;;15.30;1.00;;;;;;5084968;28;20042;-89
2023/09/29 00:25:35;;;;;;;1.02;0.68;;;14.80;1.00;;;;;;5103274;28;20036;-89
2023/09/29 00:28:00;;;;;;;0.98;0.63;;;14.80;8.30;;;;;;5103382;28;20115;-89
2023/09/29 00:30:26;;;;;;;0.05;0.05;;;15.60;1.00;;;;;;5085042;28;20067;-89
2023/09/29 00:32:53;;;;;;;0.75;0.70;;;14.80;10.60;;;;;;5110316;28;20534;-89
2023/09/29 00:35:24;;;;;;;0.55;0.55;;;15.30;1.00;;;;;;5123512;28;20048;-89
2023/09/29 00:37:54;;;;;;;0.52;0.52;;;15.00;1.00;;;;;;5105226;28;20054;-89
2023/09/29 00:40:19;;;;;;;1.08;0.50;;;14.90;17.20;;;;;;5103184;28;20065;-89
2023/09/29 00:42:46;;;;;;;0.88;0.40;;;14.90;1.00;;;;;;5102867;28;20040;-89
2023/09/29 00:45:16;;;;;;;0.25;0.25;;;14.90;1.00;;;;;;5102736;28;20102;-89
2023/09/29 00:47:43;;;;;;;2.10;0.88;;;14.90;1.90;;;;;;5067507;28;20032;-89
2023/09/29 00:50:10;;;;;;;7.97;1.35;;;14.90;1.00;;;;;;5100111;28;20036;-89
2023/09/29 00:52:41;;;;;;;1.95;1.27;;;14.80;1.00;;;;;;5104735;28;20062;-89
2023/09/29 00:55:11;;;;;;;0.25;0.25;;;16.00;1.00;;;;;;5104353;28;20040;-87
2023/09/29 00:57:47;;;;;;;0.20;0.20;;;14.80;1.00;;;;;;5103674;28;20123;-89
2023/09/29 01:00:29;;;;;;;0.20;0.20;;;14.80;1.00;;;;;;5117268;28;20039;-89
2023/09/29 01:02:59;;;;;;;0.32;0.22;;;14.80;6.80;;;;;;5119368;28;20102;-89
2023/09/29 01:05:26;;;;;;;1.45;0.82;;;14.70;1.00;;;;;;5074689;28;20043;-89
2023/09/29 01:07:52;;;;;;;1.00;0.68;;;15.00;11.80;;;;;;5103983;28;20140;-89
2023/09/29 01:10:18;;;;;;;2.03;1.00;;;15.00;6.50;;;;;;5117124;28;20727;-89
2023/09/29 01:12:44;;;;;;;0.55;0.52;;;14.70;17.10;;;;;;5084319;28;20802;-89
2023/09/29 01:15:14;;;;;;;0.90;0.52;;;14.70;61.00;;;;;;5100300;28;20058;-89
2023/09/29 01:17:43;;;;;;;0.47;0.32;;;14.70;44.70;;;;;;5083839;28;20374;-89
2023/09/29 01:20:18;;;;;;;0.35;0.30;;;14.70;51.30;;;;;;5078847;28;20190;-89
2023/09/29 01:22:47;;;;;;;0.45;0.20;;;14.60;24.20;;;;;;5104171;28;20040;-89
2023/09/29 01:25:14;;;;;;;3.53;0.90;;;14.60;93.70;;;;;;5104419;28;20426;-89
2023/09/29 01:27:40;;;;;;;0.88;0.65;;;14.70;99.90;;;;;;5122315;28;20113;-89
2023/09/29 01:30:06;;;;;;;0.20;0.20;;;14.70;99.90;;;;;;5102633;28;20047;-89
2023/09/29 01:32:33;;;;;;;1.70;0.82;;;14.60;99.90;;;;;;5110363;28;20036;-89
2023/09/29 01:34:58;;;;;;;0.43;0.43;;;14.60;99.90;;;;;;5101666;28;20036;-89
2023/09/29 01:37:25;;;;;;;0.75;0.57;;;14.60;99.90;;;;;;5067129;28;20044;-89
2023/09/29 01:39:51;;;;;;;1.67;0.80;;;14.70;99.90;;;;;;5083656;28;20040;-89
2023/09/29 01:42:16;;;;;;;0.10;0.10;;;14.60;99.90;;;;;;5084338;28;20070;-89
2023/09/29 01:44:42;;;;;;;1.75;0.65;;;14.60;99.90;;;;;;5121895;28;20084;-89
2023/09/29 01:47:08;;;;;;;1.45;0.45;;;14.60;99.90;;;;;;5103915;28;20047;-89
2023/09/29 01:49:34;;;;;;;2.05;1.35;;;14.60;99.90;;;;;;5119340;28;20606;-89
2023/09/29 01:52:00;;;;;;;0.90;0.85;;;14.70;99.90;;;;;;5115717;28;20071;-89
2023/09/29 01:54:25;;;;;;;0.35;0.28;;;14.70;99.90;;;;;;5086691;28;20118;-89
2023/09/29 01:56:51;;;;;;;0.98;0.68;;;14.90;99.90;;;;;;5103796;28;20047;-89
2023/09/29 01:59:17;;;;;;;1.65;0.63;;;14.70;99.90;;;;;;5096241;28;20054;-89
2023/09/29 02:01:42;;;;;;;0.45;0.43;;;15.20;99.90;;;;;;5100065;28;20045;-89
2023/09/29 02:04:08;;;;;;;0.20;0.20;;;15.60;99.90;;;;;;5088623;28;20545;-89
2023/09/29 02:06:37;;;;;;;0.35;0.25;;;14.70;99.90;;;;;;5121569;28;20165;-89
2023/09/29 02:09:11;;;;;;;1.20;0.88;;;14.80;99.90;;;;;;5121773;28;20044;-89
2023/09/29 02:11:42;;;;;;;0.43;0.30;;;14.70;99.90;;;;;;5086304;28;20078;-89
2023/09/29 02:14:07;;;;;;;0.03;0.03;;;14.80;99.90;;;;;;5086746;28;20088;-89
2023/09/29 02:16:34;;;;;;;0.52;0.40;;;14.90;99.90;;;;;;5121427;28;20043;-89
2023/09/29 02:19:01;;;;;;;2.83;1.13;;;15.90;99.90;;;;;;5112241;28;20123;-89
2023/09/29 02:21:28;;;;;;;1.65;0.65;;;15.00;99.90;;;;;;5093845;28;20052;-88
2023/09/29 02:23:55;;;;;;;0.55;0.52;;;15.00;99.90;;;;;;5112056;28;20065;-89
2023/09/29 02:26:22;;;;;;;0.63;0.63;;;15.40;99.90;;;;;;5082757;28;20044;-89
2023/09/29 02:28:49;;;;;;;0.32;0.28;;;15.00;99.90;;;;;;5098533;28;20071;-88
2023/09/29 02:31:15;;;;;;;0.70;0.65;;;15.10;77.00;;;;;;5085977;28;20058;-89
2023/09/29 02:33:44;;;;;;;2.20;1.65;;;15.70;68.00;;;;;;5103345;28;20218;-89
2023/09/29 02:36:09;;;;;;;0.30;0.30;;;15.60;61.30;;;;;;5103218;28;20051;-89
2023/09/29 02:38:38;;;;;;;1.20;1.00;;;15.80;90.40;;;;;;5121130;28;20070;-89
2023/09/29 02:41:07;;;;;;;0.80;0.25;;;15.10;62.00;;;;;;5094953;28;20051;-89
2023/09/29 02:43:32;;;;;;;0.47;0.40;;;15.40;47.40;;;;;;5100712;28;20065;-89
2023/09/29 02:45:58;;;;;;;1.08;0.50;;;15.20;13.20;;;;;;5082519;28;20506;-89
2023/09/29 02:48:24;;;;;;;0.57;0.57;;;15.20;1.00;;;;;;5100513;28;20081;-89
2023/09/29 02:50:50;;;;;;;0.88;0.60;;;15.20;1.00;;;;;;5121192;28;20039;-89
2023/09/29 02:53:15;;;;;;;0.40;0.40;;;15.30;1.00;;;;;;5102293;28;20042;-89
2023/09/29 02:55:45;;;;;;;1.05;0.95;;;16.30;1.00;;;;;;5086453;28;20073;-89
2023/09/29 02:58:12;;;;;;;0.25;0.25;;;15.30;1.00;;;;;;5121013;28;20040;-89
2023/09/29 03:00:39;;;;;;;0.80;0.70;;;15.70;1.00;;;;;;5121136;28;20067;-89
2023/09/29 03:03:06;;;;;;;0.82;0.82;;;16.30;1.00;;;;;;5102455;28;20043;-89
2023/09/29 03:05:32;;;;;;;1.40;0.57;;;16.10;1.00;;;;;;5102773;28;20476;-89
2023/09/29 03:07:58;;;;;;;3.63;2.10;;;15.50;1.00;;;;;;5120382;28;20125;-89
2023/09/29 03:10:25;;;;;;;8.75;1.55;;;15.50;99.90;;;;;;5120925;28;20058;-89
2023/09/29 03:12:53;;;;;;;0.40;0.28;;;15.50;99.90;;;;;;5103473;28;20404;-89
2023/09/29 03:15:21;;;;;;;0.30;0.20;;;15.50;99.90;;;;;;5102821;28;20051;-90
2023/09/29 03:17:47;;;;;;;2.92;0.98;;;15.60;99.90;;;;;;5103813;28;20059;-89
2023/09/29 03:20:14;;;;;;;3.15;1.15;;;16.50;99.90;;;;;;5092180;28;20068;-89
2023/09/29 03:22:44;;;;;;;1.33;0.60;;;15.60;99.90;;;;;;5103726;28;20043;-89
2023/09/29 03:25:10;;;;;;;1.10;0.82;;;16.10;99.90;;;;;;5078361;28;20059;-89
2023/09/29 03:27:37;;;;;;;1.58;1.00;;;15.70;99.90;;;;;;5075812;28;20055;-89
2023/09/29 03:30:07;;;;;;;1.65;1.02;;;15.80;99.90;;;;;;5117339;28;20115;-88
2023/09/29 03:32:33;;;;;;;0.10;0.10;;;15.80;99.90;;;;;;5095935;28;20493;-87
2023/09/29 03:34:59;;;;;;;0.10;0.10;;;15.80;99.90;;;;;;5126913;28;20040;-87
2023/09/29 03:37:27;;;;;;;3.83;2.88;;;16.80;99.90;;;;;;5125361;28;20078;-87
2023/09/29 03:39:53;;;;;;;0.65;0.63;;;15.80;99.90;;;;;;5124943;28;20047;-87
2023/09/29 03:42:22;;;;;;;0.52;0.52;;;15.70;99.90;;;;;;5109226;28;20044;-87
2023/09/29 03:44:47;;;;;;;0.43;0.20;;;15.70;99.90;;;;;;5106835;28;20048;-87
2023/09/29 03:47:14;;;;;;;2.05;0.68;;;15.70;99.90;;;;;;5106909;28;20078;-88
2023/09/29 03:49:42;;;;;;;0.47;0.38;;;16.20;99.90;;;;;;5124571;28;20130;-87
2023/09/29 03:52:08;;;;;;;1.65;1.20;;;15.80;99.90;;;;;;5124723;28;20378;-87
2023/09/29 03:54:35;;;;;;;0.85;0.85;;;15.90;99.90;;;;;;5106034;28;20047;-87
2023/09/29 03:57:04;;;;;;;1.85;0.88;;;15.90;99.90;;;;;;5105870;28;20503;-87
2023/09/29 03:59:30;;;;;;;0.52;0.32;;;15.90;99.90;;;;;;5124080;28;20039;-87
2023/09/29 04:01:55;;;;;;;1.65;0.93;;;15.90;99.90;;;;;;5105870;28;20050;-87
2023/09/29 04:04:21;;;;;;;0.60;0.40;;;15.80;99.90;;;;;;5089431;28;20048;-87
2023/09/29 04:06:47;;;;;;;0.98;0.63;;;15.90;99.90;;;;;;5105858;28;20071;-88
2023/09/29 04:09:12;;;;;;;2.35;0.93;;;16.40;99.90;;;;;;5100639;28;20058;-89
2023/09/29 04:11:40;;;;;;;0.52;0.52;;;15.90;99.90;;;;;;5085421;28;20044;-88
2023/09/29 04:14:06;;;;;;;0.90;0.30;;;16.00;99.90;;;;;;5068549;28;20036;-88
2023/09/29 04:16:32;;;;;;;0.80;0.73;;;17.20;99.90;;;;;;5085444;28;20037;-88
2023/09/29 04:18:57;;;;;;;0.47;0.20;;;16.30;99.90;;;;;;5102919;28;20516;-88
2023/09/29 04:21:23;;;;;;;2.53;1.65;;;16.10;99.90;;;;;;5085271;28;20078;-88
2023/09/29 04:23:48;;;;;;;1.80;1.48;;;16.10;99.90;;;;;;5103033;28;20588;-88
2023/09/29 04:26:19;;;;;;;0.08;0.08;;;16.70;99.90;;;;;;5085297;28;20044;-88
2023/09/29 04:28:50;;;;;;;3.40;1.75;;;16.10;99.90;;;;;;5068336;28;20120;-88
2023/09/29 04:31:16;;;;;;;0.05;0.05;;;16.20;99.90;;;;;;5103103;28;20134;-88
2023/09/29 04:33:43;;;;;;;0.05;0.05;;;17.00;99.90;;;;;;5084959;28;20060;-88
2023/09/29 04:36:08;;;;;;;3.85;1.60;;;16.30;99.90;;;;;;5084832;28;20050;-88
2023/09/29 04:38:36;;;;;;;5.93;1.52;;;17.50;99.90;;;;;;5085039;28;20115;-88
2023/09/29 04:41:01;;;;;;;8.57;0.70;;;17.50;99.90;;;;;;5085025;28;20036;-88
2023/09/29 04:43:28;;;;;;;0.05;0.05;;;16.30;99.90;;;;;;5101214;28;20060;-88
2023/09/29 04:45:55;;;;;;;4.53;1.25;;;16.30;99.90;;;;;;5085015;28;20044;-88
2023/09/29 04:48:21;;;;;;;0.22;0.22;;;16.90;99.90;;;;;;5120474;28;20477;-88
2023/09/29 04:50:46;;;;;;;1.25;0.85;;;16.40;99.90;;;;;;5105116;28;20044;-88
2023/09/29 04:53:12;;;;;;;1.30;0.85;;;17.10;99.90;;;;;;5123015;28;20035;-88
2023/09/29 04:55:38;;;;;;;1.00;0.55;;;16.30;99.90;;;;;;5123082;28;20118;-88
2023/09/29 04:58:04;;;;;;;0.35;0.28;;;16.30;99.90;;;;;;5122698;28;20654;-88
2023/09/29 05:00:29;;;;;;;7.00;1.75;;;16.30;99.90;;;;;;5104802;28;20046;-88
2023/09/29 05:02:58;;;;;;;0.00;0.00;;;16.40;99.90;;;;;;5105143;28;20130;-88
2023/09/29 05:05:24;;;;;;;0.52;0.47;;;16.40;99.90;;;;;;5113276;28;20044;-88
2023/09/29 05:07:50;;;;;;;0.20;0.20;;;16.40;99.90;;;;;;5084300;28;20431;-88
2023/09/29 05:10:16;;;;;;;0.08;0.08;;;16.40;99.90;;;;;;5098289;28;20086;-88
2023/09/29 05:12:43;;;;;;;0.20;0.10;;;16.40;99.90;;;;;;5096489;28;20035;-87
2023/09/29 05:15:10;;;;;;;1.23;0.45;;;16.50;99.90;;;;;;5111948;28;20099;-87
2023/09/29 05:17:35;;;;;;;1.55;1.08;;;16.50;99.90;;;;;;5094316;28;20055;-88
2023/09/29 05:20:01;;;;;;;0.15;0.15;;;17.30;99.90;;;;;;5067557;28;20040;-88
2023/09/29 05:22:27;;;;;;;0.38;0.38;;;16.60;96.60;;;;;;5067439;28;20044;-88
2023/09/29 05:24:55;;;;;;;0.45;0.40;;;16.70;1.00;;;;;;5121403;28;20047;-88
2023/09/29 05:27:21;;;;;;;1.75;1.13;;;16.80;1.00;;;;;;5122009;28;20070;-87
2023/09/29 05:29:46;;;;;;;1.98;1.17;;;16.80;1.00;;;;;;5121226;28;20035;-88
2023/09/29 05:32:12;;;;;;;0.00;0.00;;;16.80;1.00;;;;;;5066978;28;20407;-89
2023/09/29 05:34:37;;;;;;;1.02;0.88;;;18.00;1.00;;;;;;5083785;28;20040;-88
2023/09/29 05:37:04;;;;;;;0.98;0.80;;;16.80;1.00;;;;;;5094784;28;20126;-88
2023/09/29 05:39:30;;;;;;;1.38;0.70;;;16.90;99.90;;;;;;5122411;28;20370;-88
2023/09/29 05:41:56;;;;;;;0.47;0.47;;;16.90;99.90;;;;;;5122077;28;20048;-88
2023/09/29 05:44:22;;;;;;;0.40;0.40;;;16.90;99.90;;;;;;5104251;28;20108;-88
2023/09/29 05:46:47;;;;;;;1.25;0.65;;;16.90;99.90;;;;;;5104075;28;20039;-88
2023/09/29 05:49:13;;;;;;;1.27;0.95;;;16.90;99.90;;;;;;5104162;28;20046;-89
2023/09/29 05:51:41;;;;;;;1.55;1.00;;;16.90;99.90;;;;;;5103932;28;20493;-88
2023/09/29 05:54:07;;;;;;;1.80;0.55;;;16.70;1.00;;;;;;5103428;28;20138;-88
2023/09/29 05:56:33;;;;;;;1.75;1.38;;;16.60;64.30;;;;;;5091473;28;20044;-88
2023/09/29 05:58:59;;;;;;;1.33;0.85;;;16.50;99.90;;;;;;5082659;28;20084;-88
2023/09/29 06:01:25;;;;;;;1.25;1.05;;;16.30;99.90;;;;;;5084125;28;20527;-87
2023/09/29 06:03:54;;;;;;;1.77;0.38;;;16.30;99.90;;;;;;5103084;28;20079;-87
2023/09/29 06:06:20;;;;;;;0.45;0.35;;;16.20;1.00;;;;;;5084551;28;20040;-87
2023/09/29 06:08:46;;;;;;;1.65;0.85;;;17.00;1.00;;;;;;5096202;28;20050;-88
2023/09/29 06:11:12;;;;;;;10.85;0.93;;;16.30;1.00;;;;;;5096275;28;20048;-88
2023/09/29 06:13:42;;;;;;;0.10;0.10;;;17.50;1.00;;;;;;5085432;28;20039;-87
2023/09/29 06:16:08;;;;;;;4.68;2.63;;;16.20;74.40;;;;;;5075762;28;20054;-88
2023/09/29 06:18:34;;;;;;;0.63;0.57;;;16.20;77.40;;;;;;5085230;28;20353;-87
2023/09/29 06:21:00;;;;;;;0.13;0.10;;;16.30;80.20;;;;;;5096168;28;20043;-87
2023/09/29 06:23:26;;;;;;;0.68;0.68;;;16.30;99.90;;;;;;5095923;28;20035;-87
2023/09/29 06:25:59;;;;;;;0.47;0.47;;;16.30;99.90;;;;;;5076905;28;20051;-89
2023/09/29 06:28:25;;;;;;;2.67;0.90;;;16.40;64.90;;;;;;5075491;28;20044;-89
2023/09/29 06:30:58;;;;;;;1.85;0.98;;;17.20;54.60;;;;;;5105326;28;20565;-89
2023/09/29 06:33:26;;;;;;;0.73;0.70;;;16.50;2.30;;;;;;5098420;28;20051;-89
2023/09/29 06:35:52;;;;;;;0.47;0.40;;;16.70;1.00;;;;;;5116940;28;20477;-89
2023/09/29 06:38:18;;;;;;;1.20;0.82;;;16.60;1.00;;;;;;5092989;28;20051;-89
2023/09/29 06:40:44;;;;;;;2.78;1.48;;;16.60;1.00;;;;;;5076862;28;20036;-88
2023/09/29 06:43:10;;;;;;;1.40;0.55;;;16.70;1.00;;;;;;5094015;28;20385;-89
2023/09/29 06:45:36;;;;;;;0.10;0.10;;;16.70;1.00;;;;;;5076795;28;20051;-89
2023/09/29 06:48:04;;;;;;;2.17;0.52;;;17.00;99.90;;;;;;5092962;28;20398;-89
2023/09/29 06:50:30;;;;;;;1.45;1.15;;;16.90;99.90;;;;;;5058221;28;20417;-88
2023/09/29 06:52:56;;;;;;;0.35;0.35;;;16.90;99.90;;;;;;5092264;28;20066;-89
2023/09/29 06:55:21;;;;;;;1.27;0.77;;;17.60;99.90;;;;;;5092599;28;20074;-89
2023/09/29 06:57:48;;;;;;;0.90;0.80;;;17.10;99.90;;;;;;5092645;28;20047;-89
2023/09/29 07:00:13;;;;;;;0.00;0.00;;;17.00;99.90;;;;;;5092620;28;20089;-89
2023/09/29 07:02:43;;;;;;;0.00;0.00;;;17.10;99.90;;;;;;5074312;28;20075;-88
2023/09/29 07:05:09;;;;;;;0.22;0.22;;;17.70;99.90;;;;;;5073986;28;20165;-88
2023/09/29 07:07:35;;;;;;;0.40;0.22;;;17.30;99.90;;;;;;5095224;28;20528;-88
2023/09/29 07:10:00;;;;;;;2.47;1.13;;;17.40;99.90;;;;;;5088877;28;20032;-88
2023/09/29 07:12:26;;;;;;;0.40;0.32;;;17.40;99.90;;;;;;5066594;28;20070;-88
2023/09/29 07:15:03;;;;;;;0.75;0.75;;;17.60;99.90;;;;;;5095185;28;20176;-88
2023/09/29 07:17:29;;;;;;;0.55;0.43;;;17.60;99.90;;;;;;5096255;28;20500;-87
2023/09/29 07:19:54;;;;;;;0.63;0.47;;;17.80;23.70;;;;;;5086216;28;20035;-87
2023/09/29 07:22:20;;;;;;;0.98;0.57;;;18.70;17.70;;;;;;5094770;28;20107;-87
2023/09/29 07:24:46;;;;;;;0.60;0.50;;;17.90;1.00;;;;;;5094399;28;20042;-88
2023/09/29 07:27:12;;;;;;;0.80;0.70;;;18.00;1.00;;;;;;5081682;28;20036;-88
2023/09/29 07:29:38;;;;;;;0.22;0.22;;;18.50;1.00;;;;;;5110581;28;20035;-88
2023/09/29 07:32:03;;;;;;;0.63;0.47;;;18.30;1.80;;;;;;5075676;28;20040;-88
2023/09/29 07:34:32;;;;;;;0.38;0.32;;;19.50;99.90;;;;;;5083151;28;20043;-88
2023/09/29 07:36:58;;;;;;;0.13;0.10;;;18.30;99.90;;;;;;5102998;28;20040;-88
2023/09/29 07:39:23;;;;;;;1.45;0.40;;;18.80;99.90;;;;;;5078309;28;20047;-88
2023/09/29 07:41:50;;;;;;;0.00;0.00;;;18.30;99.90;;;;;;5090333;28;20481;-88
2023/09/29 07:44:16;;;;;;;0.00;0.00;;;18.30;99.90;;;;;;5093329;28;20048;-88
2023/09/29 07:46:41;;;;;;;1.75;0.65;;;18.40;99.90;;;;;;5101539;28;20048;-88
2023/09/29 07:49:07;;;;;;;0.85;0.70;;;18.60;99.90;;;;;;5093730;28;20485;-88
2023/09/29 07:51:32;;;;;;;3.25;0.70;;;18.60;99.90;;;;;;5112427;28;20048;-88
2023/09/29 07:54:01;;;;;;;0.40;0.38;;;19.00;96.60;;;;;;5094519;28;20039;-88
2023/09/29 07:56:27;;;;;;;0.65;0.20;;;19.20;1.00;;;;;;5094201;28;20461;-88
2023/09/29 07:58:54;;;;;;;0.22;0.22;;;18.90;99.90;;;;;;5094514;28;20062;-88
2023/09/29 08:01:19;;;;;;;0.80;0.38;;;19.10;99.90;;;;;;5093559;28;20096;-88
2023/09/29 08:03:45;;;;;;;0.00;0.00;;;18.90;99.90;;;;;;5073447;28;20048;-88
2023/09/29 08:06:11;;;;;;;0.30;0.30;;;18.90;99.90;;;;;;5089247;28;20054;-88
2023/09/29 08:08:37;;;;;;;0.28;0.28;;;19.00;99.90;;;;;;5093356;28;20067;-88
2023/09/29 08:11:03;;;;;;;1.20;0.80;;;19.10;99.90;;;;;;5078928;28;20158;-88
2023/09/29 08:13:28;;;;;;;0.43;0.38;;;19.10;99.90;;;;;;5057100;28;20078;-88
2023/09/29 08:15:54;;;;;;;0.00;0.00;;;19.20;99.90;;;;;;5090955;28;20489;-88
2023/09/29 08:18:20;;;;;;;0.00;0.00;;;19.40;99.90;;;;;;5074254;28;20448;-88
2023/09/29 08:20:46;;;;;;;0.00;0.00;;;19.70;99.90;;;;;;5096259;28;20512;-88
2023/09/29 08:23:12;;;;;;;0.38;0.32;;;20.00;1.00;;;;;;5092211;28;20165;-88
2023/09/29 08:25:38;;;;;;;0.85;0.73;;;20.70;99.90;;;;;;5096515;28;20111;-88
2023/09/29 08:28:05;;;;;;;20.67;1.08;;;20.40;99.90;;;;;;5096293;28;20566;-88
2023/09/29 08:30:31;;;;;;;1.95;0.57;;;20.50;99.90;;;;;;5096438;28;20036;-88
2023/09/29 08:32:57;;;;;;;0.55;0.55;;;20.50;99.90;;;;;;5089189;28;20058;-88
2023/09/29 08:35:23;;;;;;;3.60;1.33;;;20.50;99.90;;;;;;5116408;28;20075;-88
2023/09/29 08:37:49;;;;;;;0.10;0.08;;;20.60;99.90;;;;;;5088819;28;20040;-88
2023/09/29 08:40:19;;;;;;;1.30;0.73;;;20.80;99.90;;;;;;5108620;28;20046;-88
2023/09/29 08:42:51;;;;;;;1.08;0.63;;;20.70;99.90;;;;;;5098077;28;20130;-88
2023/09/29 08:45:18;;;;;;;4.28;0.98;;;20.80;99.90;;;;;;5081271;28;20043;-88
2023/09/29 08:47:53;;;;;;;2.30;0.28;;;20.80;99.90;;;;;;5100954;28;20051;-88
2023/09/29 08:50:21;;;;;;;0.85;0.75;;;20.90;99.90;;;;;;5086110;28;20052;-88
2023/09/29 08:52:49;;;;;;;0.30;0.30;;;21.90;99.90;;;;;;5084163;28;20040;-88
2023/09/29 08:55:16;;;;;;;0.50;0.40;;;21.00;99.90;;;;;;5098106;28;20052;-88
2023/09/29 08:57:42;;;;;;;4.38;1.02;;;21.10;99.90;;;;;;5097947;28;20397;-88
2023/09/29 09:00:12;;;;;;;0.20;0.13;;;21.10;99.90;;;;;;5116137;28;20035;-88
2023/09/29 09:02:41;;;;;;;0.15;0.10;;;21.20;99.90;;;;;;5077697;28;20135;-88
2023/09/29 09:05:10;;;;;;;0.10;0.10;;;21.50;97.30;;;;;;5111215;28;20508;-88
2023/09/29 09:07:37;;;;;;;0.10;0.00;;;21.60;67.70;;;;;;5085738;28;20060;-88
2023/09/29 09:10:03;;;;;;;0.65;0.40;;;21.80;69.80;;;;;;5077337;28;20494;-88
2023/09/29 09:12:33;;;;;;;0.82;0.77;;;21.90;35.60;;;;;;5060609;28;20093;-89
2023/09/29 09:14:58;;;;;;;2.33;1.15;;;22.20;29.10;;;;;;5077160;28;20051;-88
2023/09/29 09:17:25;;;;;;;0.52;0.40;;;22.00;20.10;;;;;;5085564;28;20039;-88
2023/09/29 09:19:54;;;;;;;0.45;0.30;;;22.10;7.70;;;;;;5098784;28;20489;-87
2023/09/29 09:22:26;;;;;;;0.50;0.50;;;22.30;11.40;;;;;;5116001;28;20046;-88
2023/09/29 09:25:02;;;;;;;0.00;0.00;;;22.50;12.10;;;;;;5107060;28;20040;-89
2023/09/29 09:27:38;;;;;;;3.92;1.08;;;22.50;6.80;;;;;;5089487;28;20059;-88
2023/09/29 09:30:05;;;;;;;0.08;0.08;;;22.70;1.00;;;;;;5085137;28;20075;-88
2023/09/29 09:32:31;;;;;;;0.15;0.15;;;22.70;1.00;;;;;;5077249;28;20051;-88
2023/09/29 09:34:58;;;;;;;1.60;0.68;;;22.60;1.00;;;;;;5103432;28;20040;-88
2023/09/29 09:37:25;;;;;;;0.32;0.30;;;22.50;1.00;;;;;;5094720;28;20056;-88
2023/09/29 09:39:59;;;;;;;1.27;0.50;;;22.80;1.00;;;;;;5085713;28;20493;-88
2023/09/29 09:42:28;;;;;;;0.00;0.00;;;23.00;1.00;;;;;;5096989;28;20071;-88
2023/09/29 09:44:57;;;;;;;0.13;0.13;;;23.40;1.00;;;;;;5115001;28;20431;-88
2023/09/29 09:47:25;;;;;;;0.43;0.25;;;23.50;1.00;;;;;;5115522;28;20485;-88
2023/09/29 09:49:55;;;;;;;0.57;0.57;;;23.60;1.00;;;;;;5088558;28;20058;-88
2023/09/29 09:52:29;;;;;;;1.08;0.65;;;23.80;1.00;;;;;;5094156;28;20512;-88
2023/09/29 09:54:58;;;;;;;0.90;0.28;;;24.10;1.00;;;;;;5076554;28;20044;-88
2023/09/29 09:57:34;;;;;;;1.10;0.52;;;24.00;1.00;;;;;;5105785;28;20051;-88
2023/09/29 10:00:07;;;;;;;0.65;0.40;;;24.00;1.00;;;;;;5097275;28;20114;-88
2023/09/29 10:02:44;;;;;;;0.28;0.15;;;24.00;1.00;;;;;;5106310;28;20039;-88
2023/09/29 10:05:16;;;;;;;0.10;0.10;;;24.00;1.00;;;;;;5096334;28;20485;-88
2023/09/29 10:07:46;;;;;;;0.40;0.40;;;24.10;1.00;;;;;;5098160;28;20044;-89
2023/09/29 10:10:24;;;;;;;3.05;1.25;;;24.20;1.00;;;;;;5098649;28;20375;-88
2023/09/29 10:12:54;;;;;;;0.13;0.10;;;24.00;1.00;;;;;;5106133;28;20127;-88
2023/09/29 10:15:20;;;;;;;0.17;0.17;;;23.70;1.00;;;;;;5095103;28;20416;-88
2023/09/29 10:17:47;;;;;;;0.57;0.57;;;23.50;1.00;;;;;;5113081;28;20185;-88
2023/09/29 10:20:24;;;;;;;0.00;0.00;;;23.40;1.00;;;;;;5098506;28;20607;-88
2023/09/29 10:22:54;;;;;;;0.22;0.15;;;23.10;1.00;;;;;;5092882;28;20036;-88
2023/09/29 10:25:21;;;;;;;0.95;0.57;;;23.10;1.00;;;;;;5093131;28;20051;-88
2023/09/29 10:27:49;;;;;;;0.17;0.10;;;23.10;1.00;;;;;;5093602;28;20054;-88
2023/09/29 10:30:18;;;;;;;0.75;0.60;;;23.10;1.00;;;;;;5080680;28;20035;-88
2023/09/29 10:32:50;;;;;;;0.20;0.20;;;22.90;1.00;;;;;;5074198;28;20135;-88
2023/09/29 10:35:20;;;;;;;0.13;0.13;;;22.70;1.00;;;;;;5074684;28;20070;-88
2023/09/29 10:37:54;;;;;;;0.15;0.10;;;22.60;1.00;;;;;;5083073;28;20058;-88
2023/09/29 10:40:31;;;;;;;0.17;0.17;;;22.50;1.00;;;;;;5106983;28;20125;-87
2023/09/29 10:43:04;;;;;;;0.65;0.47;;;22.60;1.00;;;;;;5092301;28;20131;-88
2023/09/29 10:45:39;;;;;;;0.10;0.10;;;22.50;1.00;;;;;;5093466;28;20097;-88
2023/09/29 10:48:08;;;;;;;0.15;0.15;;;22.50;1.00;;;;;;5058455;28;20044;-88
2023/09/29 10:50:46;;;;;;;0.30;0.30;;;22.40;1.00;;;;;;5089025;28;20048;-88
2023/09/29 10:53:12;;;;;;;0.57;0.45;;;22.30;1.00;;;;;;5086827;28;20048;-88
2023/09/29 10:55:47;;;;;;;0.00;0.00;;;22.30;1.00;;;;;;5114648;28;20089;-88
2023/09/29 10:58:14;;;;;;;0.10;0.10;;;22.20;1.00;;;;;;5095842;28;20043;-88
2023/09/29 11:00:47;;;;;;;1.15;0.30;;;22.20;1.00;;;;;;5109838;28;20044;-88
2023/09/29 11:03:17;;;;;;;0.08;0.08;;;22.20;1.00;;;;;;5110785;28;20050;-88
2023/09/29 11:05:54;;;;;;;1.25;0.52;;;22.10;1.00;;;;;;5101170;28;20036;-88
2023/09/29 11:08:27;;;;;;;0.45;0.30;;;21.90;1.00;;;;;;5094010;28;20075;-88
2023/09/29 11:11:06;;;;;;;0.08;0.08;;;21.70;1.00;;;;;;5089042;28;20051;-88
2023/09/29 11:13:31;;;;;;;1.08;0.30;;;21.80;1.00;;;;;;5114020;28;20066;-88
2023/09/29 11:15:59;;;;;;;0.25;0.25;;;21.70;1.00;;;;;;5073874;28;20478;-89
2023/09/29 11:18:33;;;;;;;0.57;0.50;;;21.90;1.00;;;;;;5075499;28;20518;-88
2023/09/29 11:21:00;;;;;;;0.20;0.20;;;21.70;2.10;;;;;;5083808;28;20070;-88
2023/09/29 11:23:28;;;;;;;0.10;0.10;;;21.70;21.50;;;;;;5075583;28;20393;-88
2023/09/29 11:25:58;;;;;;;0.28;0.28;;;21.80;29.00;;;;;;5087032;28;20054;-88
2023/09/29 11:28:26;;;;;;;0.00;0.00;;;21.90;38.30;;;;;;5106756;28;20051;-88
2023/09/29 11:30:52;;;;;;;0.45;0.38;;;22.00;24.10;;;;;;5077453;28;20537;-88
2023/09/29 11:33:19;;;;;;;1.10;0.65;;;22.00;14.70;;;;;;5095247;28;20079;-88
2023/09/29 11:35:45;;;;;;;0.00;0.00;;;21.90;24.70;;;;;;5095056;28;20047;-88
2023/09/29 11:38:21;;;;;;;0.13;0.13;;;21.80;22.00;;;;;;5091551;28;20115;-88
2023/09/29 11:40:54;;;;;;;1.55;0.63;;;21.70;33.70;;;;;;5093616;28;20052;-88
2023/09/29 11:43:19;;;;;;;0.25;0.20;;;21.60;56.20;;;;;;5093221;28;20595;-88
2023/09/29 11:45:45;;;;;;;0.80;0.47;;;21.50;86.30;;;;;;5092847;28;20052;-88
2023/09/29 11:48:11;;;;;;;0.68;0.47;;;21.50;99.30;;;;;;5077547;28;20036;-88
2023/09/29 11:50:37;;;;;;;0.75;0.55;;;21.50;99.90;;;;;;5113381;28;20038;-88
2023/09/29 11:53:06;;;;;;;1.35;0.43;;;21.40;99.90;;;;;;5116371;28;20043;-88
2023/09/29 11:55:34;;;;;;;0.35;0.35;;;21.10;99.90;;;;;;5098918;28;20051;-88
2023/09/29 11:58:00;;;;;;;1.65;1.00;;;20.90;99.90;;;;;;5081782;28;20058;-88
2023/09/29 12:00:25;;;;;;;0.43;0.30;;;20.80;99.90;;;;;;5117416;28;20130;-88
2023/09/29 12:02:51;;;;;;;0.30;0.30;;;20.50;1.00;;;;;;5084648;28;20130;-88
2023/09/29 12:05:16;;;;;;;0.15;0.10;;;20.30;99.90;;;;;;5078906;28;20042;-88
2023/09/29 12:07:42;;;;;;;0.00;0.00;;;20.20;1.00;;;;;;5098895;28;20046;-88
2023/09/29 12:10:08;;;;;;;0.65;0.57;;;20.00;1.00;;;;;;5082705;28;20032;-88
2023/09/29 12:12:33;;;;;;;0.10;0.10;;;20.20;1.00;;;;;;5095154;28;20051;-88
2023/09/29 12:14:59;;;;;;;0.22;0.22;;;20.70;1.00;;;;;;5083739;28;20044;-87
2023/09/29 12:17:25;;;;;;;0.90;0.85;;;21.20;99.90;;;;;;5089740;28;20040;-88
2023/09/29 12:19:51;;;;;;;1.40;0.40;;;21.30;99.90;;;;;;5117093;28;20079;-88
2023/09/29 12:22:18;;;;;;;1.77;0.70;;;21.40;1.00;;;;;;5091831;28;20075;-88
2023/09/29 12:24:44;;;;;;;0.20;0.20;;;21.50;99.90;;;;;;5079963;28;20044;-88
2023/09/29 12:27:10;;;;;;;0.43;0.20;;;21.60;95.00;;;;;;5116409;28;20112;-88
2023/09/29 12:29:36;;;;;;;18.30;1.08;;;21.90;1.00;;;;;;5116920;28;20058;-88
2023/09/29 12:32:02;;;;;;;2.80;0.77;;;22.20;1.00;;;;;;5098476;28;20054;-88
2023/09/29 12:34:32;;;;;;;1.33;0.85;;;22.40;99.90;;;;;;5083016;28;20036;-87
2023/09/29 12:37:01;;;;;;;3.40;1.30;;;22.30;99.90;;;;;;5097141;28;20040;-88
2023/09/29 12:39:28;;;;;;;0.70;0.55;;;22.10;99.90;;;;;;5107371;28;20488;-88
2023/09/29 12:41:54;;;;;;;0.70;0.30;;;22.00;99.90;;;;;;5107144;28;20435;-88
2023/09/29 12:44:20;;;;;;;0.70;0.22;;;21.90;99.90;;;;;;5088808;28;20051;-88
2023/09/29 12:46:46;;;;;;;0.50;0.43;;;21.70;99.90;;;;;;5098216;28;20572;-88
2023/09/29 12:49:11;;;;;;;0.65;0.35;;;21.20;99.90;;;;;;5078706;28;20047;-88
2023/09/29 12:51:38;;;;;;;0.88;0.70;;;20.70;99.90;;;;;;5077882;28;20040;-89